Terminal Aerodrome Forecast
Issued by NWS Amarillo, TX

Home | Current Version | Previous Version | Text Only | Print | Product List | Glossary On
Versions: 1 2 3 4 5 6 7 8 9 10 11 12 13 14 15
000
FTUS44 KAMA 271100
TAFAMA
TAF
KAMA 271120Z 2712/2812 27006KT P6SM SCT250
     FM271800 21010KT P6SM SCT200
     FM281000 23015KT P6SM SCT200=

USA.gov is the U.S. government's official web portal to all federal, state and local government web resources and services.